sensor_id;sensor_type;location;lat;lon;timestamp;pressure;altitude;pressure_sealevel;temperature;humidity
57594;BME280;43423;46.510;6.686;2022-12-07T00:03:33;96420.97;;;2.39;83.88
57594;BME280;43423;46.510;6.686;2022-12-07T00:06:00;96419.09;;;2.36;83.48
57594;BME280;43423;46.510;6.686;2022-12-07T00:08:27;96421.13;;;2.32;83.28
57594;BME280;43423;46.510;6.686;2022-12-07T00:10:53;96417.06;;;2.24;84.40
57594;BME280;43423;46.510;6.686;2022-12-07T00:13:18;96423.00;;;2.35;84.42
57594;BME280;43423;46.510;6.686;2022-12-07T00:15:44;96416.03;;;2.34;84.45
57594;BME280;43423;46.510;6.686;2022-12-07T00:18:10;96419.00;;;2.40;84.43
57594;BME280;43423;46.510;6.686;2022-12-07T00:20:35;96422.81;;;2.42;83.94
57594;BME280;43423;46.510;6.686;2022-12-07T00:23:01;96424.78;;;2.42;83.81
57594;BME280;43423;46.510;6.686;2022-12-07T00:25:27;96427.63;;;2.51;83.13
57594;BME280;43423;46.510;6.686;2022-12-07T00:27:53;96423.75;;;2.36;83.13
57594;BME280;43423;46.510;6.686;2022-12-07T00:30:21;96433.66;;;2.10;84.09
57594;BME280;43423;46.510;6.686;2022-12-07T00:32:46;96426.97;;;1.98;84.50
57594;BME280;43423;46.510;6.686;2022-12-07T00:35:13;96426.56;;;2.00;85.50
57594;BME280;43423;46.510;6.686;2022-12-07T00:37:38;96418.16;;;1.94;85.30
57594;BME280;43423;46.510;6.686;2022-12-07T00:40:05;96420.59;;;1.88;85.58
57594;BME280;43423;46.510;6.686;2022-12-07T00:42:30;96412.56;;;1.85;85.53
57594;BME280;43423;46.510;6.686;2022-12-07T00:44:56;96409.41;;;1.86;85.17
57594;BME280;43423;46.510;6.686;2022-12-07T00:47:22;96414.50;;;1.84;85.41
57594;BME280;43423;46.510;6.686;2022-12-07T00:49:47;96406.44;;;1.81;85.91
57594;BME280;43423;46.510;6.686;2022-12-07T00:52:13;96411.59;;;1.75;85.79
57594;BME280;43423;46.510;6.686;2022-12-07T00:54:39;96403.97;;;1.70;85.84
57594;BME280;43423;46.510;6.686;2022-12-07T00:57:05;96415.09;;;1.76;86.13
57594;BME280;43423;46.510;6.686;2022-12-07T00:59:31;96405.75;;;1.77;85.94
57594;BME280;43423;46.510;6.686;2022-12-07T01:01:56;96409.66;;;1.76;86.47
57594;BME280;43423;46.510;6.686;2022-12-07T01:04:22;96406.22;;;1.91;85.45
57594;BME280;43423;46.510;6.686;2022-12-07T01:06:47;96407.75;;;2.09;84.49
57594;BME280;43423;46.510;6.686;2022-12-07T01:09:13;96401.97;;;2.07;84.12
57594;BME280;43423;46.510;6.686;2022-12-07T01:11:38;96401.38;;;2.32;83.21
57594;BME280;43423;46.510;6.686;2022-12-07T01:14:04;96401.72;;;2.34;83.28
57594;BME280;43423;46.510;6.686;2022-12-07T01:16:31;96406.53;;;2.26;82.96
57594;BME280;43423;46.510;6.686;2022-12-07T01:18:59;96399.91;;;2.43;83.01
57594;BME280;43423;46.510;6.686;2022-12-07T01:21:27;96404.50;;;2.46;82.66
57594;BME280;43423;46.510;6.686;2022-12-07T01:23:53;96396.88;;;2.25;82.70
57594;BME280;43423;46.510;6.686;2022-12-07T01:26:22;96413.25;;;2.38;82.36
57594;BME280;43423;46.510;6.686;2022-12-07T01:28:48;96412.81;;;2.39;81.98
57594;BME280;43423;46.510;6.686;2022-12-07T01:31:17;96419.78;;;2.24;82.24
57594;BME280;43423;46.510;6.686;2022-12-07T01:33:45;96415.44;;;1.94;83.57
57594;BME280;43423;46.510;6.686;2022-12-07T01:36:21;96408.91;;;1.75;83.48
57594;BME280;43423;46.510;6.686;2022-12-07T01:38:49;96408.13;;;1.75;83.92
57594;BME280;43423;46.510;6.686;2022-12-07T01:41:16;96399.13;;;1.61;84.46
57594;BME280;43423;46.510;6.686;2022-12-07T01:46:56;96407.44;;;1.71;85.12
57594;BME280;43423;46.510;6.686;2022-12-07T01:49:27;96416.75;;;1.70;84.56
57594;BME280;43423;46.510;6.686;2022-12-07T01:52:01;96409.88;;;1.65;83.84
57594;BME280;43423;46.510;6.686;2022-12-07T01:54:27;96417.84;;;1.72;84.05
57594;BME280;43423;46.510;6.686;2022-12-07T01:56:54;96415.91;;;1.73;84.26
57594;BME280;43423;46.510;6.686;2022-12-07T01:59:23;96402.78;;;1.71;84.14
57594;BME280;43423;46.510;6.686;2022-12-07T02:01:51;96409.56;;;1.79;83.81
57594;BME280;43423;46.510;6.686;2022-12-07T02:04:18;96407.88;;;1.85;83.21
57594;BME280;43423;46.510;6.686;2022-12-07T02:06:44;96397.53;;;1.80;83.76
57594;BME280;43423;46.510;6.686;2022-12-07T02:09:11;96409.53;;;1.99;83.39
57594;BME280;43423;46.510;6.686;2022-12-07T02:11:37;96412.41;;;2.08;82.75
57594;BME280;43423;46.510;6.686;2022-12-07T02:14:03;96409.59;;;2.12;82.25
57594;BME280;43423;46.510;6.686;2022-12-07T02:16:46;96416.91;;;2.15;82.29
57594;BME280;43423;46.510;6.686;2022-12-07T02:27:49;96422.31;;;2.15;82.48
57594;BME280;43423;46.510;6.686;2022-12-07T02:30:19;96413.25;;;2.21;81.66
57594;BME280;43423;46.510;6.686;2022-12-07T02:33:00;96410.94;;;2.20;81.13
57594;BME280;43423;46.510;6.686;2022-12-07T02:35:43;96406.03;;;2.31;81.20
57594;BME280;43423;46.510;6.686;2022-12-07T02:38:26;96409.25;;;2.26;81.09
57594;BME280;43423;46.510;6.686;2022-12-07T02:41:16;96409.69;;;2.24;81.54
57594;BME280;43423;46.510;6.686;2022-12-07T02:43:56;96403.94;;;2.22;81.10
57594;BME280;43423;46.510;6.686;2022-12-07T02:46:30;96409.00;;;2.20;80.90
57594;BME280;43423;46.510;6.686;2022-12-07T02:48:57;96412.66;;;2.14;81.02
57594;BME280;43423;46.510;6.686;2022-12-07T02:51:25;96402.22;;;2.12;80.28
57594;BME280;43423;46.510;6.686;2022-12-07T02:53:51;96395.03;;;2.22;80.55
57594;BME280;43423;46.510;6.686;2022-12-07T02:59:02;96397.56;;;2.29;80.58
57594;BME280;43423;46.510;6.686;2022-12-07T03:04:10;96400.19;;;2.16;80.86
57594;BME280;43423;46.510;6.686;2022-12-07T03:06:42;96401.47;;;2.12;81.10
57594;BME280;43423;46.510;6.686;2022-12-07T03:09:20;96409.09;;;2.17;80.99
57594;BME280;43423;46.510;6.686;2022-12-07T03:11:52;96402.22;;;2.29;81.21
57594;BME280;43423;46.510;6.686;2022-12-07T03:14:25;96407.75;;;2.09;80.90
57594;BME280;43423;46.510;6.686;2022-12-07T03:19:30;96404.00;;;1.86;81.99
57594;BME280;43423;46.510;6.686;2022-12-07T03:22:03;96390.50;;;1.66;82.51
57594;BME280;43423;46.510;6.686;2022-12-07T03:24:39;96392.78;;;1.68;82.70
57594;BME280;43423;46.510;6.686;2022-12-07T03:27:17;96402.28;;;1.76;83.03
57594;BME280;43423;46.510;6.686;2022-12-07T03:29:54;96398.38;;;1.77;82.30
57594;BME280;43423;46.510;6.686;2022-12-07T03:32:46;96404.53;;;1.98;81.41
57594;BME280;43423;46.510;6.686;2022-12-07T03:35:19;96399.00;;;1.85;81.21
57594;BME280;43423;46.510;6.686;2022-12-07T03:37:52;96393.84;;;1.90;81.84
57594;BME280;43423;46.510;6.686;2022-12-07T03:40:28;96401.00;;;1.81;81.78
57594;BME280;43423;46.510;6.686;2022-12-07T03:42:57;96398.06;;;1.91;81.37
57594;BME280;43423;46.510;6.686;2022-12-07T03:45:31;96392.97;;;1.93;81.48
57594;BME280;43423;46.510;6.686;2022-12-07T03:48:20;96408.59;;;1.53;82.44
57594;BME280;43423;46.510;6.686;2022-12-07T03:50:52;96392.91;;;1.45;82.94
57594;BME280;43423;46.510;6.686;2022-12-07T03:53:37;96402.78;;;1.35;82.56
57594;BME280;43423;46.510;6.686;2022-12-07T03:56:06;96395.63;;;1.45;82.71
57594;BME280;43423;46.510;6.686;2022-12-07T03:58:34;96391.25;;;1.31;83.40
57594;BME280;43423;46.510;6.686;2022-12-07T04:00:59;96378.91;;;1.30;83.46
57594;BME280;43423;46.510;6.686;2022-12-07T04:03:25;96385.59;;;1.42;83.46
57594;BME280;43423;46.510;6.686;2022-12-07T04:05:51;96373.50;;;1.46;82.84
57594;BME280;43423;46.510;6.686;2022-12-07T04:08:16;96378.66;;;1.40;82.79
57594;BME280;43423;46.510;6.686;2022-12-07T04:10:42;96381.47;;;1.37;83.49
57594;BME280;43423;46.510;6.686;2022-12-07T04:13:07;96387.75;;;1.50;82.82
57594;BME280;43423;46.510;6.686;2022-12-07T04:15:33;96389.69;;;1.50;82.31
57594;BME280;43423;46.510;6.686;2022-12-07T04:17:59;96387.50;;;1.45;82.05
57594;BME280;43423;46.510;6.686;2022-12-07T04:20:24;96384.97;;;1.54;82.25
57594;BME280;43423;46.510;6.686;2022-12-07T04:22:50;96382.88;;;1.61;82.11
57594;BME280;43423;46.510;6.686;2022-12-07T04:25:16;96376.09;;;1.70;81.20
57594;BME280;43423;46.510;6.686;2022-12-07T04:27:41;96378.47;;;1.67;80.98
57594;BME280;43423;46.510;6.686;2022-12-07T04:30:07;96384.25;;;1.86;80.90
57594;BME280;43423;46.510;6.686;2022-12-07T04:32:33;96377.63;;;1.87;80.52
57594;BME280;43423;46.510;6.686;2022-12-07T04:34:59;96374.09;;;1.90;80.54
57594;BME280;43423;46.510;6.686;2022-12-07T04:37:24;96368.63;;;1.74;80.54
57594;BME280;43423;46.510;6.686;2022-12-07T04:39:50;96362.53;;;1.70;80.03
57594;BME280;43423;46.510;6.686;2022-12-07T04:42:16;96377.50;;;1.58;81.89
57594;BME280;43423;46.510;6.686;2022-12-07T04:44:41;96364.13;;;1.51;81.50
57594;BME280;43423;46.510;6.686;2022-12-07T04:47:07;96369.84;;;1.36;81.75
57594;BME280;43423;46.510;6.686;2022-12-07T04:49:33;96373.50;;;1.46;81.95
57594;BME280;43423;46.510;6.686;2022-12-07T04:51:58;96378.09;;;1.49;81.83
57594;BME280;43423;46.510;6.686;2022-12-07T04:54:24;96387.38;;;1.68;81.47
57594;BME280;43423;46.510;6.686;2022-12-07T04:56:49;96377.25;;;1.52;81.29
57594;BME280;43423;46.510;6.686;2022-12-07T04:59:16;96374.44;;;1.39;82.09
57594;BME280;43423;46.510;6.686;2022-12-07T05:01:43;96372.72;;;1.29;82.44
57594;BME280;43423;46.510;6.686;2022-12-07T05:04:08;96372.78;;;1.26;82.62
57594;BME280;43423;46.510;6.686;2022-12-07T05:06:34;96376.53;;;1.32;82.18
57594;BME280;43423;46.510;6.686;2022-12-07T05:09:00;96376.38;;;1.39;82.96
57594;BME280;43423;46.510;6.686;2022-12-07T05:11:26;96368.72;;;1.54;81.72
57594;BME280;43423;46.510;6.686;2022-12-07T05:14:06;96370.50;;;1.60;81.04
57594;BME280;43423;46.510;6.686;2022-12-07T05:16:32;96370.25;;;1.71;81.09
57594;BME280;43423;46.510;6.686;2022-12-07T05:18:58;96374.66;;;1.81;81.17
57594;BME280;43423;46.510;6.686;2022-12-07T05:21:24;96371.44;;;1.70;81.28
57594;BME280;43423;46.510;6.686;2022-12-07T05:23:49;96372.03;;;1.61;81.22
57594;BME280;43423;46.510;6.686;2022-12-07T05:26:16;96375.59;;;1.58;81.58
57594;BME280;43423;46.510;6.686;2022-12-07T05:28:41;96378.34;;;1.55;81.38
57594;BME280;43423;46.510;6.686;2022-12-07T05:31:07;96370.56;;;1.57;81.18
57594;BME280;43423;46.510;6.686;2022-12-07T05:33:33;96370.56;;;1.57;81.21
57594;BME280;43423;46.510;6.686;2022-12-07T05:35:58;96356.06;;;1.47;81.55
57594;BME280;43423;46.510;6.686;2022-12-07T05:38:24;96356.00;;;1.51;81.41
57594;BME280;43423;46.510;6.686;2022-12-07T05:40:50;96351.25;;;1.55;81.83
57594;BME280;43423;46.510;6.686;2022-12-07T05:43:16;96356.69;;;1.55;81.05
57594;BME280;43423;46.510;6.686;2022-12-07T05:45:42;96354.84;;;1.68;81.49
57594;BME280;43423;46.510;6.686;2022-12-07T05:48:07;96355.44;;;1.76;80.49
57594;BME280;43423;46.510;6.686;2022-12-07T05:50:33;96358.03;;;1.63;79.98
57594;BME280;43423;46.510;6.686;2022-12-07T05:52:58;96358.91;;;1.60;80.61
57594;BME280;43423;46.510;6.686;2022-12-07T05:55:24;96349.03;;;1.50;81.14
57594;BME280;43423;46.510;6.686;2022-12-07T05:57:49;96353.31;;;1.51;80.87
57594;BME280;43423;46.510;6.686;2022-12-07T06:00:34;96361.50;;;1.47;81.61
57594;BME280;43423;46.510;6.686;2022-12-07T06:02:59;96357.00;;;1.57;80.76
57594;BME280;43423;46.510;6.686;2022-12-07T06:05:25;96357.09;;;1.53;81.19
57594;BME280;43423;46.510;6.686;2022-12-07T06:07:50;96363.81;;;1.65;80.51
57594;BME280;43423;46.510;6.686;2022-12-07T06:10:16;96365.59;;;1.72;80.16
57594;BME280;43423;46.510;6.686;2022-12-07T06:12:42;96357.38;;;1.59;81.51
57594;BME280;43423;46.510;6.686;2022-12-07T06:15:09;96362.59;;;1.50;80.30
57594;BME280;43423;46.510;6.686;2022-12-07T06:17:36;96350.91;;;1.36;80.54
57594;BME280;43423;46.510;6.686;2022-12-07T06:20:03;96354.63;;;1.43;80.60
57594;BME280;43423;46.510;6.686;2022-12-07T06:22:28;96355.03;;;1.41;80.86
57594;BME280;43423;46.510;6.686;2022-12-07T06:24:54;96360.09;;;1.59;80.67
57594;BME280;43423;46.510;6.686;2022-12-07T06:27:19;96366.13;;;1.66;80.08
57594;BME280;43423;46.510;6.686;2022-12-07T06:29:45;96357.44;;;1.55;80.55
57594;BME280;43423;46.510;6.686;2022-12-07T06:32:11;96365.16;;;1.57;80.44
57594;BME280;43423;46.510;6.686;2022-12-07T06:34:37;96362.03;;;1.58;80.14
57594;BME280;43423;46.510;6.686;2022-12-07T06:37:03;96357.72;;;1.61;79.94
57594;BME280;43423;46.510;6.686;2022-12-07T06:39:29;96350.25;;;1.65;80.25
57594;BME280;43423;46.510;6.686;2022-12-07T06:41:55;96356.28;;;1.73;80.00
57594;BME280;43423;46.510;6.686;2022-12-07T06:44:21;96362.28;;;1.80;80.13
57594;BME280;43423;46.510;6.686;2022-12-07T06:46:48;96349.94;;;1.79;79.81
57594;BME280;43423;46.510;6.686;2022-12-07T06:49:14;96346.19;;;1.89;79.59
57594;BME280;43423;46.510;6.686;2022-12-07T06:51:39;96352.22;;;1.97;79.45
57594;BME280;43423;46.510;6.686;2022-12-07T06:54:11;96356.88;;;1.96;78.35
57594;BME280;43423;46.510;6.686;2022-12-07T06:56:38;96361.03;;;2.01;78.37
57594;BME280;43423;46.510;6.686;2022-12-07T06:59:05;96357.56;;;1.84;78.54
57594;BME280;43423;46.510;6.686;2022-12-07T07:01:32;96366.13;;;1.83;79.37
57594;BME280;43423;46.510;6.686;2022-12-07T07:03:58;96357.38;;;1.59;79.23
57594;BME280;43423;46.510;6.686;2022-12-07T07:06:24;96367.38;;;1.78;79.38
57594;BME280;43423;46.510;6.686;2022-12-07T07:08:50;96357.56;;;1.84;78.92
57594;BME280;43423;46.510;6.686;2022-12-07T07:11:15;96357.47;;;1.88;78.63
57594;BME280;43423;46.510;6.686;2022-12-07T07:13:41;96362.91;;;1.88;78.79
57594;BME280;43423;46.510;6.686;2022-12-07T07:16:07;96359.53;;;2.00;78.98
57594;BME280;43423;46.510;6.686;2022-12-07T07:18:33;96363.75;;;2.01;78.80
57594;BME280;43423;46.510;6.686;2022-12-07T07:20:59;96361.63;;;2.09;77.84
57594;BME280;43423;46.510;6.686;2022-12-07T07:23:25;96367.97;;;2.18;78.48
57594;BME280;43423;46.510;6.686;2022-12-07T07:25:50;96359.59;;;2.29;77.25
57594;BME280;43423;46.510;6.686;2022-12-07T07:28:16;96358.91;;;2.25;77.38
57594;BME280;43423;46.510;6.686;2022-12-07T07:30:42;96367.91;;;2.22;77.67
57594;BME280;43423;46.510;6.686;2022-12-07T07:33:09;96371.28;;;2.26;76.94
57594;BME280;43423;46.510;6.686;2022-12-07T07:35:35;96367.22;;;2.18;77.49
57594;BME280;43423;46.510;6.686;2022-12-07T07:38:01;96362.97;;;2.17;77.98
57594;BME280;43423;46.510;6.686;2022-12-07T07:40:27;96364.75;;;2.40;77.36
57594;BME280;43423;46.510;6.686;2022-12-07T07:42:54;96363.44;;;2.44;76.60
57594;BME280;43423;46.510;6.686;2022-12-07T07:45:22;96366.25;;;2.41;77.46
57594;BME280;43423;46.510;6.686;2022-12-07T07:47:49;96370.09;;;2.72;77.61
57594;BME280;43423;46.510;6.686;2022-12-07T07:50:15;96350.59;;;3.32;74.51
57594;BME280;43423;46.510;6.686;2022-12-07T07:52:41;96366.81;;;3.48;73.83
57594;BME280;43423;46.510;6.686;2022-12-07T07:55:07;96385.22;;;3.95;71.47
57594;BME280;43423;46.510;6.686;2022-12-07T07:57:35;96373.00;;;3.36;72.22
57594;BME280;43423;46.510;6.686;2022-12-07T08:00:03;96376.09;;;3.09;72.06
57594;BME280;43423;46.510;6.686;2022-12-07T08:02:29;96373.56;;;2.73;73.45
57594;BME280;43423;46.510;6.686;2022-12-07T08:04:55;96366.16;;;2.44;73.99
57594;BME280;43423;46.510;6.686;2022-12-07T08:07:21;96379.56;;;2.35;74.70
57594;BME280;43423;46.510;6.686;2022-12-07T08:09:46;96387.56;;;2.26;75.42
57594;BME280;43423;46.510;6.686;2022-12-07T08:12:12;96372.31;;;2.16;75.34
57594;BME280;43423;46.510;6.686;2022-12-07T08:14:37;96375.34;;;2.18;76.12
57594;BME280;43423;46.510;6.686;2022-12-07T08:17:03;96384.84;;;2.26;75.38
57594;BME280;43423;46.510;6.686;2022-12-07T08:19:29;96385.75;;;2.36;75.04
57594;BME280;43423;46.510;6.686;2022-12-07T08:21:55;96385.16;;;2.44;74.46
57594;BME280;43423;46.510;6.686;2022-12-07T08:24:21;96380.91;;;2.43;74.15
57594;BME280;43423;46.510;6.686;2022-12-07T08:26:47;96377.88;;;2.41;74.59
57594;BME280;43423;46.510;6.686;2022-12-07T08:29:13;96384.94;;;2.39;74.44
57594;BME280;43423;46.510;6.686;2022-12-07T08:31:40;96396.81;;;2.45;73.88
57594;BME280;43423;46.510;6.686;2022-12-07T08:34:05;96396.38;;;2.46;73.87
57594;BME280;43423;46.510;6.686;2022-12-07T08:36:31;96396.38;;;2.46;74.19
57594;BME280;43423;46.510;6.686;2022-12-07T08:38:56;96397.88;;;2.47;73.97
57594;BME280;43423;46.510;6.686;2022-12-07T08:41:22;96387.38;;;2.33;74.41
57594;BME280;43423;46.510;6.686;2022-12-07T08:43:48;96386.53;;;2.36;74.69
57594;BME280;43423;46.510;6.686;2022-12-07T08:46:20;96393.31;;;2.28;74.22
57594;BME280;43423;46.510;6.686;2022-12-07T08:48:49;96391.38;;;2.45;74.98
57594;BME280;43423;46.510;6.686;2022-12-07T08:51:16;96385.09;;;2.32;73.58
57594;BME280;43423;46.510;6.686;2022-12-07T08:53:42;96397.97;;;2.44;73.40
57594;BME280;43423;46.510;6.686;2022-12-07T08:56:09;96388.72;;;2.58;73.71
57594;BME280;43423;46.510;6.686;2022-12-07T08:58:35;96391.63;;;2.79;72.69
57594;BME280;43423;46.510;6.686;2022-12-07T09:01:03;96389.94;;;2.86;71.95
57594;BME280;43423;46.510;6.686;2022-12-07T09:03:28;96400.25;;;2.91;71.21
57594;BME280;43423;46.510;6.686;2022-12-07T09:05:54;96393.47;;;2.83;71.43
57594;BME280;43423;46.510;6.686;2022-12-07T09:08:21;96400.88;;;2.82;71.61
57594;BME280;43423;46.510;6.686;2022-12-07T09:10:47;96394.31;;;2.96;71.85
57594;BME280;43423;46.510;6.686;2022-12-07T09:13:13;96400.94;;;3.07;71.12
57594;BME280;43423;46.510;6.686;2022-12-07T09:15:39;96408.03;;;2.60;72.04
57594;BME280;43423;46.510;6.686;2022-12-07T09:18:04;96398.38;;;2.59;72.45
57594;BME280;43423;46.510;6.686;2022-12-07T09:20:30;96399.94;;;2.27;72.43
57594;BME280;43423;46.510;6.686;2022-12-07T09:22:55;96405.44;;;2.40;72.63
57594;BME280;43423;46.510;6.686;2022-12-07T09:25:21;96392.34;;;2.51;72.17
57594;BME280;43423;46.510;6.686;2022-12-07T09:27:46;96407.19;;;2.63;72.20
57594;BME280;43423;46.510;6.686;2022-12-07T09:30:12;96403.59;;;2.82;70.79
57594;BME280;43423;46.510;6.686;2022-12-07T09:32:38;96419.38;;;2.87;71.21
57594;BME280;43423;46.510;6.686;2022-12-07T09:35:04;96418.22;;;2.72;71.18
57594;BME280;43423;46.510;6.686;2022-12-07T09:37:30;96423.81;;;2.65;71.92
57594;BME280;43423;46.510;6.686;2022-12-07T09:40:01;96431.50;;;2.83;71.28
57594;BME280;43423;46.510;6.686;2022-12-07T09:42:33;96421.25;;;2.74;71.14
57594;BME280;43423;46.510;6.686;2022-12-07T09:45:00;96426.03;;;2.70;71.37
57594;BME280;43423;46.510;6.686;2022-12-07T09:47:27;96415.50;;;2.72;71.20
57594;BME280;43423;46.510;6.686;2022-12-07T09:49:57;96430.22;;;2.87;71.72
57594;BME280;43423;46.510;6.686;2022-12-07T09:52:27;96405.94;;;2.96;72.28
57594;BME280;43423;46.510;6.686;2022-12-07T09:54:54;96418.81;;;3.08;70.61
57594;BME280;43423;46.510;6.686;2022-12-07T09:57:27;96426.78;;;2.99;70.24
57594;BME280;43423;46.510;6.686;2022-12-07T09:59:57;96426.22;;;2.92;71.57
57594;BME280;43423;46.510;6.686;2022-12-07T10:04:50;96413.25;;;2.83;70.92
57594;BME280;43423;46.510;6.686;2022-12-07T10:07:16;96410.69;;;2.92;71.49
57594;BME280;43423;46.510;6.686;2022-12-07T10:09:42;96409.09;;;3.07;72.00
57594;BME280;43423;46.510;6.686;2022-12-07T10:12:10;96413.25;;;3.41;72.54
57594;BME280;43423;46.510;6.686;2022-12-07T10:14:53;96415.03;;;3.19;70.59
57594;BME280;43423;46.510;6.686;2022-12-07T10:17:39;96401.31;;;3.10;71.01
57594;BME280;43423;46.510;6.686;2022-12-07T10:20:23;96418.31;;;3.39;70.35
57594;BME280;43423;46.510;6.686;2022-12-07T10:23:15;96408.66;;;3.38;69.70
57594;BME280;43423;46.510;6.686;2022-12-07T10:25:42;96403.41;;;3.18;70.16
57594;BME280;43423;46.510;6.686;2022-12-07T10:33:48;96400.03;;;3.27;71.71
57594;BME280;43423;46.510;6.686;2022-12-07T10:38:48;96394.16;;;3.28;70.50
57594;BME280;43423;46.510;6.686;2022-12-07T10:41:15;96388.53;;;3.35;71.66
57594;BME280;43423;46.510;6.686;2022-12-07T10:43:52;96373.34;;;3.51;70.37
57594;BME280;43423;46.510;6.686;2022-12-07T10:46:43;96381.59;;;3.47;70.76
57594;BME280;43423;46.510;6.686;2022-12-07T10:57:46;96364.59;;;3.30;71.62
57594;BME280;43423;46.510;6.686;2022-12-07T11:05:19;96358.44;;;3.43;71.86
57594;BME280;43423;46.510;6.686;2022-12-07T11:08:13;96354.53;;;3.44;71.54
57594;BME280;43423;46.510;6.686;2022-12-07T11:13:39;96353.66;;;3.34;72.38
57594;BME280;43423;46.510;6.686;2022-12-07T11:16:32;96353.09;;;3.39;72.08
57594;BME280;43423;46.510;6.686;2022-12-07T11:26:46;96343.31;;;3.29;73.60
57594;BME280;43423;46.510;6.686;2022-12-07T11:34:39;96321.59;;;3.42;73.57
57594;BME280;43423;46.510;6.686;2022-12-07T11:37:18;96322.97;;;3.21;74.08
57594;BME280;43423;46.510;6.686;2022-12-07T11:39:50;96323.19;;;3.39;73.90
57594;BME280;43423;46.510;6.686;2022-12-07T11:45:13;96317.75;;;3.39;73.85
57594;BME280;43423;46.510;6.686;2022-12-07T11:47:55;96312.56;;;3.32;74.08
57594;BME280;43423;46.510;6.686;2022-12-07T11:50:27;96298.97;;;3.32;74.84
57594;BME280;43423;46.510;6.686;2022-12-07T11:53:15;96307.44;;;3.47;73.54
57594;BME280;43423;46.510;6.686;2022-12-07T11:58:44;96297.75;;;3.46;74.16
57594;BME280;43423;46.510;6.686;2022-12-07T12:01:42;96301.03;;;3.53;74.13
57594;BME280;43423;46.510;6.686;2022-12-07T12:06:33;96299.63;;;3.49;73.20
57594;BME280;43423;46.510;6.686;2022-12-07T12:09:17;96295.59;;;3.53;73.49
57594;BME280;43423;46.510;6.686;2022-12-07T12:15:42;96284.16;;;3.46;73.46
57594;BME280;43423;46.510;6.686;2022-12-07T12:20:57;96275.56;;;3.47;73.98
57594;BME280;43423;46.510;6.686;2022-12-07T12:23:32;96279.50;;;3.46;74.30
57594;BME280;43423;46.510;6.686;2022-12-07T12:26:06;96277.75;;;3.52;74.15
57594;BME280;43423;46.510;6.686;2022-12-07T12:33:57;96276.66;;;3.62;74.18
57594;BME280;43423;46.510;6.686;2022-12-07T12:44:02;96259.34;;;3.69;73.13
57594;BME280;43423;46.510;6.686;2022-12-07T12:51:43;96259.47;;;3.66;72.94
57594;BME280;43423;46.510;6.686;2022-12-07T12:54:35;96258.81;;;3.61;74.20
57594;BME280;43423;46.510;6.686;2022-12-07T12:59:27;96254.69;;;3.70;73.08
57594;BME280;43423;46.510;6.686;2022-12-07T13:15:37;96235.19;;;3.71;73.12
57594;BME280;43423;46.510;6.686;2022-12-07T13:18:50;96244.78;;;3.76;73.17
57594;BME280;43423;46.510;6.686;2022-12-07T13:21:01;96234.56;;;3.80;73.60
57594;BME280;43423;46.510;6.686;2022-12-07T13:26:15;96229.44;;;3.82;74.37
57594;BME280;43423;46.510;6.686;2022-12-07T13:28:47;96225.88;;;3.72;72.11
57594;BME280;43423;46.510;6.686;2022-12-07T13:33:54;96224.09;;;3.78;72.50
57594;BME280;43423;46.510;6.686;2022-12-07T13:36:26;96233.22;;;3.84;73.17
57594;BME280;43423;46.510;6.686;2022-12-07T13:38:57;96217.72;;;3.59;71.80
57594;BME280;43423;46.510;6.686;2022-12-07T13:41:28;96215.97;;;3.66;71.75
57594;BME280;43423;46.510;6.686;2022-12-07T13:46:35;96217.19;;;3.52;71.37
57594;BME280;43423;46.510;6.686;2022-12-07T13:49:17;96212.16;;;3.63;71.33
57594;BME280;43423;46.510;6.686;2022-12-07T13:51:43;96223.56;;;3.71;71.56
57594;BME280;43423;46.510;6.686;2022-12-07T13:54:11;96210.41;;;3.69;71.37
57594;BME280;43423;46.510;6.686;2022-12-07T13:56:37;96208.25;;;3.64;71.19
57594;BME280;43423;46.510;6.686;2022-12-07T13:59:20;96213.56;;;3.68;71.15
57594;BME280;43423;46.510;6.686;2022-12-07T14:01:48;96225.00;;;3.62;70.79
57594;BME280;43423;46.510;6.686;2022-12-07T14:06:49;96202.72;;;3.55;70.83
57594;BME280;43423;46.510;6.686;2022-12-07T14:09:17;96203.16;;;3.53;70.54
57594;BME280;43423;46.510;6.686;2022-12-07T14:11:44;96204.59;;;3.45;71.83
57594;BME280;43423;46.510;6.686;2022-12-07T14:14:13;96201.66;;;3.52;72.24
57594;BME280;43423;46.510;6.686;2022-12-07T14:16:40;96199.00;;;3.61;71.76
57594;BME280;43423;46.510;6.686;2022-12-07T14:19:48;96185.41;;;3.61;71.81
57594;BME280;43423;46.510;6.686;2022-12-07T14:22:20;96188.22;;;3.71;71.92
57594;BME280;43423;46.510;6.686;2022-12-07T14:24:47;96197.78;;;3.75;71.72
57594;BME280;43423;46.510;6.686;2022-12-07T14:27:21;96191.91;;;3.77;72.14
57594;BME280;43423;46.510;6.686;2022-12-07T14:29:47;96190.06;;;3.74;72.46
57594;BME280;43423;46.510;6.686;2022-12-07T14:32:22;96190.06;;;3.74;72.80
57594;BME280;43423;46.510;6.686;2022-12-07T14:35:14;96205.50;;;3.77;72.75
57594;BME280;43423;46.510;6.686;2022-12-07T14:37:44;96200.28;;;3.70;71.86
57594;BME280;43423;46.510;6.686;2022-12-07T14:40:15;96194.00;;;3.73;72.84
57594;BME280;43423;46.510;6.686;2022-12-07T14:42:42;96202.47;;;3.75;73.29
57594;BME280;43423;46.510;6.686;2022-12-07T14:45:19;96202.16;;;3.73;74.17
57594;BME280;43423;46.510;6.686;2022-12-07T14:47:46;96203.00;;;3.70;73.12
57594;BME280;43423;46.510;6.686;2022-12-07T14:50:13;96195.44;;;3.64;72.86
57594;BME280;43423;46.510;6.686;2022-12-07T14:52:40;96199.00;;;3.61;73.39
57594;BME280;43423;46.510;6.686;2022-12-07T14:55:16;96197.50;;;3.60;73.95
57594;BME280;43423;46.510;6.686;2022-12-07T14:57:43;96194.22;;;3.66;73.63
57594;BME280;43423;46.510;6.686;2022-12-07T15:00:13;96208.13;;;3.68;73.81
57594;BME280;43423;46.510;6.686;2022-12-07T15:02:39;96204.69;;;3.54;72.97
57594;BME280;43423;46.510;6.686;2022-12-07T15:05:04;96201.09;;;3.57;73.31
57594;BME280;43423;46.510;6.686;2022-12-07T15:07:30;96202.16;;;3.60;73.89
57594;BME280;43423;46.510;6.686;2022-12-07T15:09:56;96189.56;;;3.53;73.59
57594;BME280;43423;46.510;6.686;2022-12-07T15:12:21;96198.25;;;3.61;73.25
57594;BME280;43423;46.510;6.686;2022-12-07T15:14:48;96204.44;;;3.61;73.17
57594;BME280;43423;46.510;6.686;2022-12-07T15:17:14;96203.59;;;3.64;72.67
57594;BME280;43423;46.510;6.686;2022-12-07T15:19:39;96195.22;;;3.59;73.50
57594;BME280;43423;46.510;6.686;2022-12-07T15:22:05;96198.91;;;3.65;72.64